createdAt,value
2018-09-24T00:00:03.954Z,96.90
2018-09-24T00:02:07.501Z,97.00
2018-09-24T00:04:11.059Z,97.90
2018-09-24T00:06:14.798Z,97.70
2018-09-24T00:08:18.310Z,97.90
2018-09-24T00:10:21.830Z,97.30
2018-09-24T00:12:25.432Z,96.90
2018-09-24T00:14:29.184Z,97.20
2018-09-24T00:16:32.811Z,97.70
2018-09-24T00:18:36.392Z,96.50
2018-09-24T00:20:40.104Z,95.60
2018-09-24T00:22:43.701Z,96.20
2018-09-24T00:24:47.219Z,96.30
2018-09-24T00:26:50.753Z,96.60
2018-09-24T00:28:54.431Z,96.50
2018-09-24T00:30:57.937Z,95.20
2018-09-24T00:33:01.494Z,95.20
2018-09-24T00:35:05.348Z,94.80
2018-09-24T00:37:08.961Z,95.00
2018-09-24T00:39:12.787Z,96.20
2018-09-24T00:41:16.259Z,95.20
2018-09-24T00:43:19.805Z,96.90
2018-09-24T00:45:23.311Z,96.50
2018-09-24T00:47:26.996Z,96.90
2018-09-24T00:49:30.503Z,96.70
2018-09-24T00:51:34.042Z,96.90
2018-09-24T00:53:37.723Z,96.60
2018-09-24T00:55:41.254Z,97.00
2018-09-24T00:57:44.874Z,96.20
2018-09-24T00:59:48.446Z,95.20
2018-09-24T01:01:51.967Z,94.40
2018-09-24T01:03:55.551Z,93.50
2018-09-24T01:05:59.200Z,93.60
2018-09-24T01:08:02.892Z,94.20
2018-09-24T01:10:06.710Z,93.40
2018-09-24T01:12:10.212Z,93.40
2018-09-24T01:14:13.859Z,93.10
2018-09-24T01:16:17.387Z,94.30
2018-09-24T01:18:20.897Z,93.60
2018-09-24T01:20:24.472Z,94.40
2018-09-24T01:22:27.995Z,95.70
2018-09-24T01:24:31.480Z,95.50
2018-09-24T01:26:35.153Z,95.90
2018-09-24T01:28:38.728Z,96.00
2018-09-24T01:30:42.234Z,97.30
2018-09-24T01:32:45.782Z,96.80
2018-09-24T01:34:55.814Z,97.40
2018-09-24T01:36:59.439Z,98.70
2018-09-24T01:39:03.037Z,98.10
2018-09-24T01:41:06.756Z,98.00
2018-09-24T01:43:10.320Z,98.20
2018-09-24T01:45:13.893Z,97.90
2018-09-24T01:47:17.466Z,97.40
2018-09-24T01:49:21.142Z,97.90
2018-09-24T01:51:33.502Z,98.10
2018-09-24T01:53:37.006Z,97.70
2018-09-24T01:55:40.508Z,97.90
2018-09-24T01:57:44.042Z,98.80
2018-09-24T01:59:52.820Z,98.50
2018-09-24T02:01:56.322Z,98.60
2018-09-24T02:03:59.907Z,97.40
2018-09-24T02:06:04.135Z,97.20
2018-09-24T02:08:07.607Z,96.70
2018-09-24T02:10:11.381Z,96.80
2018-09-24T02:12:14.916Z,96.00
2018-09-24T02:14:18.487Z,95.50
2018-09-24T02:16:22.111Z,95.30
2018-09-24T02:18:25.901Z,94.40
2018-09-24T02:20:29.496Z,95.20
2018-09-24T02:22:32.989Z,95.00
2018-09-24T02:24:36.525Z,95.40
2018-09-24T02:26:40.040Z,95.50
2018-09-24T02:28:43.728Z,98.20
2018-09-24T02:30:47.225Z,98.20
2018-09-24T02:32:50.860Z,97.00
2018-09-24T02:34:56.972Z,97.40
2018-09-24T02:37:00.517Z,97.50
2018-09-24T02:39:05.853Z,98.40
2018-09-24T02:41:09.683Z,98.10
2018-09-24T02:43:13.250Z,98.10
2018-09-24T02:45:16.793Z,97.00
2018-09-24T02:47:20.339Z,96.50
2018-09-24T02:49:23.914Z,96.80
2018-09-24T02:51:27.538Z,97.70
2018-09-24T02:53:40.999Z,98.20
2018-09-24T02:55:44.558Z,97.70
2018-09-24T02:57:48.052Z,97.80
2018-09-24T02:59:51.585Z,97.50
2018-09-24T03:01:55.103Z,96.80
2018-09-24T03:03:58.655Z,96.60
2018-09-24T03:06:02.341Z,96.80
2018-09-24T03:08:09.993Z,98.20
2018-09-24T03:10:13.557Z,97.80
2018-09-24T03:12:17.072Z,97.50
2018-09-24T03:14:24.844Z,97.50
2018-09-24T03:16:28.489Z,98.40
2018-09-24T03:18:32.043Z,97.60
2018-09-24T03:20:37.800Z,97.30
2018-09-24T03:22:41.331Z,99.50
2018-09-24T03:24:44.812Z,99.90
2018-09-24T03:26:48.483Z,99.90
2018-09-24T03:28:52.017Z,99.90
2018-09-24T03:30:55.546Z,99.00
2018-09-24T03:32:59.443Z,99.00
2018-09-24T03:35:03.053Z,99.50
2018-09-24T03:37:06.560Z,99.60
2018-09-24T03:39:10.062Z,98.50
2018-09-24T03:41:13.763Z,98.30
2018-09-24T03:43:17.360Z,98.70
2018-09-24T03:45:21.073Z,99.00
2018-09-24T03:47:24.627Z,99.90
2018-09-24T03:49:28.223Z,99.70
2018-09-24T03:51:31.951Z,99.80
2018-09-24T03:53:35.476Z,99.10
2018-09-24T03:55:39.098Z,98.70
2018-09-24T03:57:43.280Z,97.60
2018-09-24T03:59:46.833Z,97.20
2018-09-24T04:01:50.352Z,97.00
2018-09-24T04:06:51.053Z,96.40
2018-09-24T04:09:00.009Z,97.20
2018-09-24T04:11:08.939Z,97.90
2018-09-24T04:13:17.753Z,97.60
2018-09-24T04:15:26.572Z,98.80
2018-09-24T04:17:35.200Z,97.50
2018-09-24T04:19:44.077Z,97.40
2018-09-24T04:21:52.882Z,97.90
2018-09-24T04:24:01.672Z,97.60
2018-09-24T04:26:10.644Z,98.60
2018-09-24T04:28:19.327Z,97.50
2018-09-24T04:30:28.005Z,97.90
2018-09-24T04:32:36.819Z,98.30
2018-09-24T04:34:45.635Z,97.30
2018-09-24T04:36:54.312Z,97.20
2018-09-24T04:39:03.222Z,97.60
2018-09-24T04:41:12.127Z,97.60
2018-09-24T04:43:20.948Z,96.50
2018-09-24T04:45:29.836Z,96.00
2018-09-24T04:47:38.612Z,95.90
2018-09-24T04:49:47.580Z,95.40
2018-09-24T04:51:56.549Z,94.80
2018-09-24T04:54:05.343Z,94.00
2018-09-24T04:56:14.299Z,94.10
2018-09-24T04:58:23.219Z,94.60
2018-09-24T05:00:32.013Z,93.80
2018-09-24T05:02:40.808Z,92.80
2018-09-24T05:04:49.662Z,92.50
2018-09-24T05:06:58.452Z,91.10
2018-09-24T05:09:07.247Z,91.70
2018-09-24T05:11:16.103Z,91.20
2018-09-24T05:13:24.874Z,91.40
2018-09-24T05:15:33.804Z,91.80
2018-09-24T05:17:42.731Z,91.70
2018-09-24T05:19:51.612Z,92.40
2018-09-24T05:22:00.535Z,92.50
2018-09-24T05:24:09.359Z,92.60
2018-09-24T05:26:18.096Z,92.60
2018-09-24T05:28:27.021Z,92.30
2018-09-24T05:30:36.036Z,92.40
2018-09-24T05:32:45.033Z,91.60
2018-09-24T05:34:54.102Z,91.30
2018-09-24T05:37:02.716Z,91.00
2018-09-24T05:39:14.004Z,91.10
2018-09-24T05:41:22.976Z,91.10
2018-09-24T05:43:31.796Z,91.10
2018-09-24T05:45:40.784Z,90.50
2018-09-24T05:47:49.655Z,91.50
2018-09-24T05:49:58.499Z,91.20
2018-09-24T05:52:07.393Z,90.30
2018-09-24T05:54:16.092Z,88.60
2018-09-24T05:56:25.272Z,89.80
2018-09-24T05:58:34.047Z,90.60
2018-09-24T06:00:42.956Z,89.50
2018-09-24T06:02:51.866Z,90.30
2018-09-24T06:05:00.726Z,90.30
2018-09-24T06:07:09.364Z,90.30
2018-09-24T06:09:18.375Z,90.10
2018-09-24T06:11:27.316Z,89.10
2018-09-24T06:13:36.301Z,90.60
2018-09-24T06:15:45.081Z,91.00
2018-09-24T06:17:54.163Z,90.80
2018-09-24T06:20:02.943Z,90.70
2018-09-24T06:22:11.929Z,91.40
2018-09-24T06:24:20.813Z,91.30
2018-09-24T06:26:29.437Z,92.80
2018-09-24T06:28:38.168Z,93.80
2018-09-24T06:30:46.952Z,92.40
2018-09-24T06:32:55.920Z,91.70
2018-09-24T06:35:04.626Z,92.90
2018-09-24T06:37:13.436Z,92.60
2018-09-24T06:39:22.166Z,92.90
2018-09-24T06:41:31.484Z,94.90
2018-09-24T06:43:40.392Z,95.00
2018-09-24T06:45:49.394Z,94.40
2018-09-24T06:47:58.101Z,93.80
2018-09-24T06:50:06.900Z,93.90
2018-09-24T06:52:15.760Z,93.50
2018-09-24T06:54:24.386Z,93.80
2018-09-24T06:56:33.114Z,93.40
2018-09-24T06:58:41.770Z,93.30
2018-09-24T07:00:50.520Z,93.80
2018-09-24T07:02:59.233Z,94.00
2018-09-24T07:05:08.030Z,93.20
2018-09-24T07:07:16.688Z,92.20
2018-09-24T07:09:25.659Z,92.30
2018-09-24T07:11:34.407Z,93.60
2018-09-24T07:13:43.694Z,93.30
2018-09-24T07:15:52.461Z,92.50
2018-09-24T07:18:01.369Z,92.40
2018-09-24T07:20:10.266Z,91.10
2018-09-24T07:22:19.043Z,92.60
2018-09-24T07:24:27.956Z,93.60
2018-09-24T07:26:36.931Z,92.90
2018-09-24T07:28:45.962Z,94.10
2018-09-24T07:30:54.860Z,94.40
2018-09-24T07:33:03.672Z,93.50
2018-09-24T07:35:12.501Z,93.00
2018-09-24T07:37:21.191Z,91.70
2018-09-24T07:39:30.068Z,92.00
2018-09-24T07:41:38.906Z,91.50
2018-09-24T07:43:47.657Z,91.70
2018-09-24T07:45:56.579Z,93.00
2018-09-24T07:48:05.251Z,92.00
2018-09-24T07:50:14.350Z,91.90
2018-09-24T07:52:23.288Z,91.80
2018-09-24T07:54:32.264Z,92.50
2018-09-24T07:56:41.388Z,91.00
2018-09-24T07:58:50.084Z,90.00
2018-09-24T08:00:59.039Z,90.70
2018-09-24T08:03:07.705Z,91.90
2018-09-24T08:05:16.475Z,91.60
2018-09-24T08:07:25.381Z,92.10
2018-09-24T08:09:34.179Z,91.40
2018-09-24T08:11:43.135Z,90.70
2018-09-24T08:13:52.076Z,90.60
2018-09-24T08:16:00.840Z,90.80
2018-09-24T08:18:09.735Z,90.40
2018-09-24T08:20:18.712Z,91.40
2018-09-24T08:22:27.468Z,91.60
2018-09-24T08:24:36.072Z,90.70
2018-09-24T08:26:45.131Z,91.10
2018-09-24T08:28:53.889Z,91.40
2018-09-24T08:31:02.917Z,90.10
2018-09-24T08:33:11.975Z,91.30
2018-09-24T08:35:20.792Z,90.20
2018-09-24T08:37:29.755Z,89.50
2018-09-24T08:39:38.596Z,90.10
2018-09-24T08:41:47.469Z,89.50
2018-09-24T08:43:56.319Z,88.60
2018-09-24T08:46:05.137Z,90.50
2018-09-24T08:48:13.977Z,90.20
2018-09-24T08:50:22.923Z,90.60
2018-09-24T08:52:31.638Z,87.30
2018-09-24T08:54:40.420Z,89.90
2018-09-24T08:56:49.229Z,89.30
2018-09-24T08:58:57.839Z,88.60
2018-09-24T09:01:06.839Z,86.50
2018-09-24T09:03:15.705Z,83.50
2018-09-24T09:05:24.628Z,85.70
2018-09-24T09:07:33.579Z,86.70
2018-09-24T09:09:42.353Z,87.30
2018-09-24T09:11:51.357Z,86.70
2018-09-24T09:14:00.296Z,85.40
2018-09-24T09:16:08.957Z,87.00
2018-09-24T09:18:17.680Z,84.00
2018-09-24T09:20:26.519Z,84.70
2018-09-24T09:22:35.480Z,84.70
2018-09-24T09:24:44.372Z,85.70
2018-09-24T09:26:53.077Z,84.10
2018-09-24T09:29:02.087Z,83.90
2018-09-24T09:31:10.933Z,83.00
2018-09-24T09:33:19.854Z,82.90
2018-09-24T09:35:28.587Z,82.60
2018-09-24T09:37:37.519Z,84.20
2018-09-24T09:39:46.357Z,82.90
2018-09-24T09:41:55.069Z,84.00
2018-09-24T09:44:03.975Z,80.80
2018-09-24T09:46:12.812Z,79.70
2018-09-24T09:48:21.604Z,80.00
2018-09-24T09:50:30.339Z,79.10
2018-09-24T09:52:39.117Z,79.70
2018-09-24T09:54:47.960Z,78.90
2018-09-24T09:56:56.876Z,79.40
2018-09-24T09:59:05.724Z,76.90
2018-09-24T10:01:14.767Z,77.20
2018-09-24T10:03:23.741Z,78.80
2018-09-24T10:05:32.484Z,77.50
2018-09-24T10:07:41.471Z,76.20
2018-09-24T10:09:50.476Z,78.10
2018-09-24T10:11:59.416Z,79.80
2018-09-24T10:14:08.259Z,80.00
2018-09-24T10:16:17.067Z,79.10
2018-09-24T10:18:25.928Z,79.20
2018-09-24T10:20:34.706Z,80.40
2018-09-24T10:22:43.708Z,80.60
2018-09-24T10:24:52.623Z,76.80
2018-09-24T10:27:01.271Z,75.20
2018-09-24T10:29:10.266Z,75.30
2018-09-24T10:31:18.900Z,75.00
2018-09-24T10:33:27.902Z,78.90
2018-09-24T10:35:36.816Z,78.60
2018-09-24T10:37:45.575Z,77.10
2018-09-24T10:39:54.336Z,77.00
2018-09-24T10:42:03.178Z,75.70
2018-09-24T10:44:12.386Z,77.40
2018-09-24T10:46:21.391Z,77.60
2018-09-24T10:48:30.272Z,76.30
2018-09-24T10:50:39.014Z,73.00
2018-09-24T10:52:47.716Z,73.70
2018-09-24T10:54:56.418Z,74.60
2018-09-24T10:57:05.456Z,75.20
2018-09-24T10:59:14.318Z,71.20
2018-09-24T11:01:23.072Z,73.20
2018-09-24T11:03:31.786Z,75.00
2018-09-24T11:05:40.495Z,76.30
2018-09-24T11:07:49.376Z,74.10
2018-09-24T11:09:58.423Z,72.40
2018-09-24T11:12:07.140Z,72.30
2018-09-24T11:14:15.936Z,73.50
2018-09-24T11:16:24.828Z,74.00
2018-09-24T11:18:33.579Z,73.70
2018-09-24T11:20:42.309Z,71.10
2018-09-24T11:22:51.263Z,68.80
2018-09-24T11:25:00.194Z,66.90
2018-09-24T11:27:09.091Z,67.70
2018-09-24T11:29:18.036Z,68.00
2018-09-24T11:31:26.832Z,67.70
2018-09-24T11:33:35.702Z,66.30
2018-09-24T11:35:44.479Z,68.40
2018-09-24T11:37:53.232Z,66.60
2018-09-24T11:40:02.160Z,67.40
2018-09-24T11:42:10.943Z,66.50
2018-09-24T11:44:19.934Z,66.20
2018-09-24T11:46:29.018Z,66.10
2018-09-24T11:48:37.884Z,67.70
2018-09-24T11:50:46.942Z,66.90
2018-09-24T11:52:55.592Z,69.80
2018-09-24T11:55:04.355Z,70.00
2018-09-24T11:57:13.277Z,64.70
2018-09-24T11:59:22.176Z,64.60
2018-09-24T12:01:30.987Z,62.40
2018-09-24T12:03:39.928Z,61.40
2018-09-24T12:05:48.937Z,61.70
2018-09-24T12:07:57.563Z,63.20
2018-09-24T12:10:06.367Z,61.50
2018-09-24T12:12:15.122Z,58.60
2018-09-24T12:14:23.755Z,60.70
2018-09-24T12:16:32.556Z,62.60
2018-09-24T12:18:41.452Z,62.90
2018-09-24T12:20:50.255Z,62.50
2018-09-24T12:22:59.063Z,62.40
2018-09-24T12:25:07.865Z,59.70
2018-09-24T12:27:16.698Z,60.70
2018-09-24T12:29:25.542Z,60.80
2018-09-24T12:31:34.275Z,62.20
2018-09-24T12:33:43.142Z,59.80
2018-09-24T12:35:52.198Z,59.60
2018-09-24T12:38:00.964Z,58.40
2018-09-24T12:40:09.920Z,58.80
2018-09-24T12:42:18.833Z,60.10
2018-09-24T12:44:27.739Z,58.70
2018-09-24T12:46:36.664Z,59.70
2018-09-24T12:48:45.584Z,57.90
2018-09-24T12:50:54.567Z,55.80
2018-09-24T12:53:03.566Z,55.90
2018-09-24T12:55:12.534Z,57.00
2018-09-24T12:57:21.344Z,58.50
2018-09-24T12:59:30.172Z,59.10
2018-09-24T13:01:38.896Z,57.80
2018-09-24T13:03:47.613Z,58.90
2018-09-24T13:05:56.414Z,59.10
2018-09-24T13:08:05.315Z,58.70
2018-09-24T13:10:14.227Z,58.70
2018-09-24T13:12:23.039Z,59.30
2018-09-24T13:14:32.007Z,57.80
2018-09-24T13:16:40.952Z,58.30
2018-09-24T13:18:50.043Z,57.40
2018-09-24T13:20:58.936Z,58.40
2018-09-24T13:23:07.724Z,57.70
2018-09-24T13:25:16.572Z,55.70
2018-09-24T13:27:25.483Z,55.40
2018-09-24T13:29:34.643Z,54.90
2018-09-24T13:31:43.480Z,54.40
2018-09-24T13:33:52.230Z,55.80
2018-09-24T13:36:01.200Z,55.80
2018-09-24T13:38:10.073Z,55.70
2018-09-24T13:40:18.931Z,55.30
2018-09-24T13:42:27.823Z,52.70
2018-09-24T13:44:36.545Z,54.20
2018-09-24T13:46:45.555Z,54.30
2018-09-24T13:48:54.431Z,54.90
2018-09-24T13:51:03.427Z,54.30
2018-09-24T13:53:12.421Z,56.30
2018-09-24T13:55:27.913Z,56.10
2018-09-24T13:57:36.850Z,57.10
2018-09-24T13:59:45.593Z,57.30
2018-09-24T14:01:54.378Z,57.70
2018-09-24T14:04:03.340Z,59.00
2018-09-24T14:06:12.272Z,59.30
2018-09-24T14:08:21.193Z,59.10
2018-09-24T14:10:30.234Z,58.40
2018-09-24T14:12:39.195Z,58.30
2018-09-24T14:14:48.108Z,57.30
2018-09-24T14:16:56.962Z,59.10
2018-09-24T14:19:05.945Z,59.20
2018-09-24T14:21:14.860Z,58.60
2018-09-24T14:23:23.649Z,58.20
2018-09-24T14:25:32.420Z,57.30
2018-09-24T14:27:42.046Z,55.60
2018-09-24T14:29:50.654Z,57.40
2018-09-24T14:31:59.576Z,54.80
2018-09-24T14:34:08.709Z,55.60
2018-09-24T14:36:17.652Z,54.60
2018-09-24T14:38:26.560Z,56.20
2018-09-24T14:40:35.500Z,54.90
2018-09-24T14:42:44.259Z,56.60
2018-09-24T14:44:53.081Z,55.00
2018-09-24T14:47:01.936Z,54.40
2018-09-24T14:49:10.856Z,53.80
2018-09-24T14:51:19.668Z,54.30
2018-09-24T14:53:28.473Z,53.60
2018-09-24T14:55:37.472Z,57.60
2018-09-24T14:57:46.463Z,57.40
2018-09-24T14:59:55.132Z,57.60
2018-09-24T15:02:03.835Z,58.50
2018-09-24T15:04:12.847Z,59.70
2018-09-24T15:06:21.846Z,59.40
2018-09-24T15:08:30.748Z,59.70
2018-09-24T15:10:39.827Z,59.60
2018-09-24T15:12:48.648Z,59.10
2018-09-24T15:14:57.735Z,58.30
2018-09-24T15:17:06.551Z,59.10
2018-09-24T15:19:15.184Z,58.50
2018-09-24T15:21:24.018Z,58.40
2018-09-24T15:23:32.990Z,57.70
2018-09-24T15:25:41.899Z,57.10
2018-09-24T15:27:50.612Z,56.90
2018-09-24T15:29:59.397Z,55.30
2018-09-24T15:32:08.216Z,55.10
2018-09-24T15:34:17.141Z,53.40
2018-09-24T15:36:25.932Z,55.40
2018-09-24T15:38:35.031Z,55.70
2018-09-24T15:40:43.913Z,54.40
2018-09-24T15:42:52.759Z,54.40
2018-09-24T15:45:01.578Z,54.60
2018-09-24T15:47:10.399Z,54.70
2018-09-24T15:49:19.320Z,54.50
2018-09-24T15:51:28.517Z,53.40
2018-09-24T15:53:37.355Z,53.70
2018-09-24T15:55:46.206Z,53.60
2018-09-24T15:57:54.948Z,53.00
2018-09-24T16:00:03.783Z,52.00
2018-09-24T16:02:12.453Z,52.70
2018-09-24T16:04:21.368Z,51.90
2018-09-24T16:06:30.259Z,51.90
2018-09-24T16:08:39.094Z,52.20
2018-09-24T16:10:47.847Z,53.30
2018-09-24T16:12:56.619Z,51.60
2018-09-24T16:15:05.529Z,51.30
2018-09-24T16:17:14.316Z,52.30
2018-09-24T16:19:23.236Z,53.40
2018-09-24T16:21:32.013Z,52.90
2018-09-24T16:23:40.684Z,53.50
2018-09-24T16:25:49.394Z,51.50
2018-09-24T16:27:58.136Z,52.50
2018-09-24T16:30:07.154Z,53.20
2018-09-24T16:32:15.952Z,53.40
2018-09-24T16:34:24.892Z,53.80
2018-09-24T16:36:34.013Z,52.70
2018-09-24T16:38:42.826Z,54.70
2018-09-24T16:40:51.584Z,54.40
2018-09-24T16:43:00.412Z,53.90
2018-09-24T16:45:09.204Z,55.20
2018-09-24T16:47:18.001Z,55.10
2018-09-24T16:49:27.156Z,55.30
2018-09-24T16:51:36.062Z,55.00
2018-09-24T16:53:45.084Z,55.70
2018-09-24T16:55:53.947Z,55.00
2018-09-24T16:58:02.870Z,55.40
2018-09-24T17:02:28.605Z,56.60
2018-09-24T17:04:37.423Z,56.70
2018-09-24T17:06:46.350Z,57.00
2018-09-24T17:08:55.090Z,57.30
2018-09-24T17:11:04.039Z,57.10
2018-09-24T17:13:13.081Z,57.80
2018-09-24T17:15:22.104Z,60.10
2018-09-24T17:17:31.004Z,57.70
2018-09-24T17:19:39.831Z,58.30
2018-09-24T17:25:00.564Z,59.30
2018-09-24T17:27:09.492Z,60.80
2018-09-24T17:29:18.323Z,60.40
2018-09-24T17:31:27.240Z,60.80
2018-09-24T17:33:36.343Z,60.70
2018-09-24T17:35:45.132Z,62.30
2018-09-24T17:37:54.088Z,61.70
2018-09-24T17:40:02.875Z,61.80
2018-09-24T17:42:11.892Z,60.90
2018-09-24T17:44:20.783Z,61.00
2018-09-24T17:46:29.899Z,61.50
2018-09-24T17:48:38.888Z,61.90
2018-09-24T17:50:47.610Z,62.10
2018-09-24T17:52:56.647Z,62.10
2018-09-24T17:55:05.403Z,62.40
2018-09-24T17:57:14.215Z,62.10
2018-09-24T17:59:23.009Z,62.30
2018-09-24T18:01:31.678Z,62.20
2018-09-24T18:03:40.353Z,62.10
2018-09-24T18:05:49.326Z,62.30
2018-09-24T18:07:58.211Z,62.50
2018-09-24T18:10:07.021Z,62.40
2018-09-24T18:12:15.783Z,62.60
2018-09-24T18:14:24.789Z,63.00
2018-09-24T18:16:33.830Z,63.50
2018-09-24T18:18:42.637Z,63.60
2018-09-24T18:20:51.458Z,64.10
2018-09-24T18:23:00.349Z,64.70
2018-09-24T18:25:09.393Z,65.30
2018-09-24T18:27:18.232Z,65.30
2018-09-24T18:29:27.206Z,66.00
2018-09-24T18:31:36.166Z,65.40
2018-09-24T18:33:44.983Z,65.50
2018-09-24T18:35:53.785Z,65.60
2018-09-24T18:38:02.608Z,64.50
2018-09-24T18:40:11.583Z,64.60
2018-09-24T18:42:20.547Z,63.80
2018-09-24T18:44:29.450Z,64.70
2018-09-24T18:46:38.422Z,65.80
2018-09-24T18:48:47.514Z,64.90
2018-09-24T18:50:56.415Z,66.10
2018-09-24T18:53:05.500Z,67.60
2018-09-24T18:55:14.502Z,68.20
2018-09-24T18:57:23.406Z,70.90
2018-09-24T18:59:32.230Z,71.60
2018-09-24T19:01:41.059Z,73.00
2018-09-24T19:03:50.011Z,72.10
2018-09-24T19:05:58.980Z,72.40
2018-09-24T19:08:07.843Z,71.30
2018-09-24T19:10:16.617Z,70.80
2018-09-24T19:12:25.601Z,70.60
2018-09-24T19:14:34.423Z,71.00
2018-09-24T19:16:43.188Z,70.50
2018-09-24T19:18:52.092Z,70.70
2018-09-24T19:21:00.937Z,71.40
2018-09-24T19:23:09.914Z,69.30
2018-09-24T19:25:18.613Z,68.80
2018-09-24T19:27:27.385Z,69.10
2018-09-24T19:29:36.339Z,69.10
2018-09-24T19:31:45.302Z,69.50
2018-09-24T19:33:54.008Z,69.80
2018-09-24T19:36:03.055Z,70.30
2018-09-24T19:38:12.109Z,70.70
2018-09-24T19:40:21.072Z,71.60
2018-09-24T19:42:30.039Z,74.20
2018-09-24T19:44:39.136Z,75.40
2018-09-24T19:46:48.215Z,75.60
2018-09-24T19:48:57.148Z,76.00
2018-09-24T19:51:06.176Z,76.80
2018-09-24T19:53:15.172Z,76.40
2018-09-24T19:55:23.997Z,75.60
2018-09-24T19:57:32.807Z,74.90
2018-09-24T19:59:41.848Z,74.60
2018-09-24T20:01:50.845Z,74.30
2018-09-24T20:03:59.660Z,74.80
2018-09-24T20:06:08.584Z,74.70
2018-09-24T20:08:17.290Z,75.20
2018-09-24T20:10:26.158Z,74.60
2018-09-24T20:12:35.068Z,74.00
2018-09-24T20:14:43.845Z,74.30
2018-09-24T20:16:52.700Z,73.80
2018-09-24T20:19:01.482Z,74.10
2018-09-24T20:21:10.470Z,74.20
2018-09-24T20:23:19.219Z,74.00
2018-09-24T20:25:28.224Z,74.50
2018-09-24T20:27:37.104Z,75.00
2018-09-24T20:29:45.926Z,75.10
2018-09-24T20:31:54.688Z,74.60
2018-09-24T20:34:03.473Z,74.90
2018-09-24T20:36:12.417Z,74.20
2018-09-24T20:38:21.430Z,74.70
2018-09-24T20:40:30.283Z,74.50
2018-09-24T20:42:38.963Z,74.00
2018-09-24T20:44:47.824Z,74.90
2018-09-24T20:46:56.744Z,75.50
2018-09-24T20:49:05.933Z,74.80
2018-09-24T20:51:14.843Z,75.00
2018-09-24T20:53:23.956Z,75.00
2018-09-24T20:55:32.824Z,74.50
2018-09-24T20:57:41.787Z,75.40
2018-09-24T20:59:50.464Z,75.00
2018-09-24T21:01:59.384Z,74.40
2018-09-24T21:04:08.251Z,74.60
2018-09-24T21:06:17.027Z,73.50
2018-09-24T21:08:25.947Z,73.80
2018-09-24T21:10:34.655Z,74.10
2018-09-24T21:12:43.679Z,75.50
2018-09-24T21:14:52.575Z,76.00
2018-09-24T21:17:01.399Z,77.40
2018-09-24T21:19:10.402Z,77.30
2018-09-24T21:21:19.450Z,77.90
2018-09-24T21:23:28.290Z,78.10
2018-09-24T21:25:37.288Z,77.30
2018-09-24T21:27:46.187Z,79.00
2018-09-24T21:29:55.310Z,77.10
2018-09-24T21:32:04.284Z,76.60
2018-09-24T21:34:12.962Z,76.10
2018-09-24T21:36:22.032Z,76.10
2018-09-24T21:38:30.758Z,75.60
2018-09-24T21:40:39.683Z,75.00
2018-09-24T21:42:48.600Z,74.80
2018-09-24T21:44:57.473Z,75.20
2018-09-24T21:47:06.364Z,75.70
2018-09-24T21:49:15.062Z,74.80
2018-09-24T21:51:24.057Z,75.00
2018-09-24T21:53:33.015Z,74.70
2018-09-24T21:55:41.904Z,74.90
2018-09-24T21:57:50.748Z,75.70
2018-09-24T21:59:59.735Z,75.90
2018-09-24T22:02:08.557Z,76.20
2018-09-24T22:04:17.612Z,76.60
2018-09-24T22:06:26.537Z,76.70
2018-09-24T22:08:35.319Z,78.40
2018-09-24T22:10:44.204Z,77.70
2018-09-24T22:12:52.984Z,77.30
2018-09-24T22:15:01.904Z,76.40
2018-09-24T22:17:11.060Z,76.40
2018-09-24T22:19:19.792Z,76.80
2018-09-24T22:21:28.597Z,76.00
2018-09-24T22:23:37.435Z,75.90
2018-09-24T22:25:46.434Z,78.30
2018-09-24T22:27:55.174Z,81.30
2018-09-24T22:30:04.102Z,80.70
2018-09-24T22:32:12.817Z,79.90
2018-09-24T22:34:21.941Z,79.00
2018-09-24T22:36:30.871Z,78.00
2018-09-24T22:38:39.666Z,78.70
2018-09-24T22:40:48.513Z,78.40
2018-09-24T22:42:57.505Z,79.70
2018-09-24T22:45:06.428Z,79.40
2018-09-24T22:47:15.322Z,79.70
2018-09-24T22:49:24.154Z,79.10
2018-09-24T22:51:32.983Z,79.80
2018-09-24T22:53:41.673Z,79.10
2018-09-24T22:55:50.640Z,78.90
2018-09-24T22:57:59.420Z,78.80
2018-09-24T23:00:08.352Z,77.70
2018-09-24T23:02:17.252Z,78.20
2018-09-24T23:04:26.276Z,77.90
2018-09-24T23:06:35.379Z,77.90
2018-09-24T23:08:44.252Z,77.30
2018-09-24T23:10:53.211Z,77.30
2018-09-24T23:13:02.308Z,77.20
2018-09-24T23:15:11.194Z,76.90
2018-09-24T23:17:20.220Z,77.60
2018-09-24T23:19:28.975Z,77.60
2018-09-24T23:21:37.897Z,78.80
2018-09-24T23:23:46.812Z,79.60
2018-09-24T23:25:55.754Z,79.50
2018-09-24T23:28:04.411Z,80.30
2018-09-24T23:30:13.080Z,79.50
2018-09-24T23:32:21.825Z,79.20
2018-09-24T23:34:30.673Z,78.30
2018-09-24T23:36:39.618Z,77.80
2018-09-24T23:38:49.108Z,78.00
2018-09-24T23:40:57.872Z,78.60
2018-09-24T23:43:06.541Z,79.10
2018-09-24T23:45:15.228Z,78.70
2018-09-24T23:47:23.920Z,78.00
2018-09-24T23:49:32.599Z,77.50
2018-09-24T23:51:41.639Z,78.30
2018-09-24T23:53:50.721Z,78.00
2018-09-24T23:55:59.700Z,78.20
2018-09-24T23:58:08.736Z,78.30
